Time;durP1;ratioP1;P1;durP2;ratioP2;P2;SDS_P1;SDS_P2;PMS_P1;PMS_P2;Temp;Humidity;BMP_temperature;BMP_pressure;BME280_temperature;BME280_humidity;BME280_pressure;Samples;Min_cycle;Max_cycle;Signal;HPM_P1;HPM_P2
2023/01/22 00:06:31;;;;;;;9.40;5.15;;;;;;;4.94;81.96;100219.41;2336706;26;20233;-90
2023/01/22 00:22:41;;;;;;;5.60;3.17;;;;;;;5.02;85.71;100232.69;4823979;26;20043;-88
2023/01/22 00:47:02;;;;;;;10.32;6.28;;;;;;;4.32;91.48;100264.97;3635903;26;20289;-90
2023/01/22 00:49:34;;;;;;;9.60;5.32;;;;;;;4.29;92.16;100257.34;5016472;28;20034;-90
2023/01/22 00:52:09;;;;;;;13.98;6.47;;;;;;;4.16;91.68;100254.09;4998554;28;20042;-90
2023/01/22 00:54:42;;;;;;;12.63;5.93;;;;;;;4.20;92.09;100255.50;4986258;28;20039;-91
2023/01/22 00:57:15;;;;;;;13.35;7.03;;;;;;;4.02;90.93;100252.63;5015337;28;20041;-89
2023/01/22 01:00:07;;;;;;;12.05;7.22;;;;;;;3.86;92.44;100267.94;5016303;28;20034;-90
2023/01/22 01:03:25;;;;;;;15.52;7.63;;;;;;;4.08;91.93;100269.63;5018248;28;20069;-90
2023/01/22 01:05:45;;;;;;;12.70;7.15;;;;;;;4.27;91.98;100272.41;5002976;28;20094;-92
2023/01/22 01:11:48;;;;;;;14.10;7.07;;;;;;;4.39;90.68;100276.63;5016955;28;20076;-90
2023/01/22 01:14:21;;;;;;;12.30;7.13;;;;;;;4.36;88.70;100276.88;4985324;28;20043;-90
2023/01/22 01:17:08;;;;;;;12.98;7.55;;;;;;;4.15;87.76;100283.91;5018048;28;20107;-89
2023/01/22 01:22:18;;;;;;;15.23;7.13;;;;;;;4.07;90.67;100281.09;5044762;23;20034;-89
2023/01/22 01:24:50;;;;;;;11.00;7.40;;;;;;;4.17;92.36;100276.75;5022107;28;20031;-89
2023/01/22 01:27:25;;;;;;;11.70;7.18;;;;;;;4.18;91.90;100288.88;5020210;28;20096;-88
2023/01/22 01:32:29;;;;;;;14.43;8.10;;;;;;;4.20;92.18;100276.50;5090974;23;20069;-89
2023/01/22 01:34:58;;;;;;;15.43;7.85;;;;;;;4.23;92.12;100286.72;5035490;28;20057;-89
2023/01/22 01:37:30;;;;;;;13.60;7.38;;;;;;;4.42;91.08;100293.88;5004122;28;20039;-90
2023/01/22 01:40:02;;;;;;;14.85;7.32;;;;;;;4.36;92.17;100292.63;5036297;28;20081;-89
2023/01/22 01:42:37;;;;;;;13.65;7.35;;;;;;;4.22;92.98;100295.53;5015850;28;20141;-90
2023/01/22 01:45:23;;;;;;;16.38;7.95;;;;;;;4.24;91.84;100298.88;5016253;28;20046;-89
2023/01/22 01:48:12;;;;;;;32.42;11.95;;;;;;;4.35;91.33;100296.19;5030477;28;20030;-89
2023/01/22 01:50:45;;;;;;;55.13;18.77;;;;;;;4.26;92.03;100290.88;4997033;28;20058;-88
2023/01/22 01:53:42;;;;;;;45.97;17.60;;;;;;;3.95;95.23;100300.44;5013565;28;20506;-88
2023/01/22 01:56:22;;;;;;;54.28;19.77;;;;;;;4.00;98.33;100301.75;5024965;28;20050;-87
2023/01/22 01:58:52;;;;;;;54.70;21.35;;;;;;;3.79;100.00;100298.22;4994466;28;20030;-88
2023/01/22 02:01:21;;;;;;;38.58;15.95;;;;;;;3.82;100.00;100290.13;5007685;28;20126;-86
2023/01/22 02:03:48;;;;;;;30.50;12.90;;;;;;;3.79;100.00;100297.41;5008702;28;20049;-87
2023/01/22 02:06:16;;;;;;;26.35;11.52;;;;;;;3.64;100.00;100300.31;5009351;28;20042;-89
2023/01/22 02:08:46;;;;;;;24.70;12.10;;;;;;;3.82;100.00;100302.38;5009573;28;20073;-88
2023/01/22 02:11:12;;;;;;;29.98;12.32;;;;;;;4.10;100.00;100307.91;5006381;28;20053;-88
2023/01/22 02:13:43;;;;;;;27.70;12.00;;;;;;;4.09;100.00;100306.22;5008050;28;20090;-88
2023/01/22 02:16:12;;;;;;;16.38;7.60;;;;;;;4.43;100.00;100304.25;5023117;28;20045;-88
2023/01/22 02:18:37;;;;;;;20.73;8.93;;;;;;;4.31;100.00;100300.03;5025827;28;20058;-89
2023/01/22 02:21:24;;;;;;;17.17;8.60;;;;;;;4.38;100.00;100305.59;5007195;28;20050;-88
2023/01/22 02:23:49;;;;;;;15.45;7.80;;;;;;;4.44;100.00;100299.84;5024068;28;20038;-86
2023/01/22 02:26:20;;;;;;;15.07;7.55;;;;;;;4.11;100.00;100304.28;5008213;28;20391;-87
2023/01/22 02:29:11;;;;;;;19.30;7.45;;;;;;;4.05;100.00;100306.59;4996530;28;20082;-87
2023/01/22 02:32:08;;;;;;;12.02;7.22;;;;;;;4.09;100.00;100305.38;5006275;28;20042;-86
2023/01/22 02:35:03;;;;;;;12.70;7.47;;;;;;;4.16;100.00;100298.69;5011341;28;20061;-84
2023/01/22 02:37:36;;;;;;;14.10;6.72;;;;;;;4.05;100.00;100293.47;5190771;22;20057;-87
2023/01/22 02:51:10;;;;;;;13.82;7.32;;;;;;;4.19;100.00;100298.41;4562948;26;20073;-86
2023/01/22 02:53:36;;;;;;;13.35;6.65;;;;;;;4.06;100.00;100301.22;5008053;28;20042;-85
2023/01/22 02:56:09;;;;;;;13.05;6.45;;;;;;;4.03;100.00;100305.91;5007997;28;20054;-85
2023/01/22 02:58:40;;;;;;;12.98;6.82;;;;;;;4.02;100.00;100304.22;5005285;28;20530;-84
2023/01/22 03:01:27;;;;;;;10.95;6.32;;;;;;;3.96;100.00;100309.97;4991876;28;20034;-85
2023/01/22 03:04:11;;;;;;;12.35;6.45;;;;;;;4.24;100.00;100304.13;5007966;28;20443;-83
2023/01/22 03:06:44;;;;;;;11.68;6.88;;;;;;;4.12;100.00;100303.34;5024742;28;20042;-88
2023/01/22 03:09:13;;;;;;;13.82;6.47;;;;;;;4.08;100.00;100311.56;5011339;28;20069;-87
2023/01/22 03:11:42;;;;;;;13.73;7.05;;;;;;;3.88;100.00;100315.81;5016101;28;20034;-85
2023/01/22 03:22:31;;;;;;;9.15;5.90;;;;;;;3.99;100.00;100314.97;5010315;28;20042;-85
2023/01/22 03:25:00;;;;;;;9.85;6.10;;;;;;;3.93;100.00;100318.09;5010637;28;20147;-85
2023/01/22 03:27:27;;;;;;;8.15;5.50;;;;;;;3.99;100.00;100322.81;5008196;28;20487;-87
2023/01/22 03:29:54;;;;;;;10.60;6.05;;;;;;;3.84;100.00;100321.47;5008896;28;20046;-86
2023/01/22 03:32:20;;;;;;;11.75;6.97;;;;;;;3.67;100.00;100321.97;5007933;28;20050;-86
2023/01/22 03:34:46;;;;;;;11.48;6.03;;;;;;;3.88;100.00;100323.69;5009719;28;20027;-86
2023/01/22 03:37:13;;;;;;;11.32;7.05;;;;;;;3.68;100.00;100326.28;5009278;28;20030;-87
2023/01/22 03:39:42;;;;;;;15.10;6.82;;;;;;;3.64;100.00;100326.53;5008110;28;20043;-88
2023/01/22 03:42:08;;;;;;;13.95;7.15;;;;;;;3.59;100.00;100333.06;5006431;28;20041;-86
2023/01/22 03:44:34;;;;;;;10.88;6.90;;;;;;;3.55;100.00;100329.84;5009114;28;20045;-85
2023/01/22 03:47:00;;;;;;;11.13;7.13;;;;;;;3.40;100.00;100340.72;5012547;28;20034;-87
2023/01/22 03:49:27;;;;;;;13.00;6.72;;;;;;;3.39;100.00;100341.66;5014439;28;20071;-86
2023/01/22 03:51:53;;;;;;;11.80;6.60;;;;;;;3.42;100.00;100352.75;5001804;28;20042;-87
2023/01/22 03:54:18;;;;;;;12.55;6.65;;;;;;;3.60;100.00;100351.31;5009092;28;20042;-88
2023/01/22 03:56:44;;;;;;;10.63;6.30;;;;;;;3.74;100.00;100357.22;4989455;28;20065;-88
2023/01/22 03:59:25;;;;;;;15.77;6.50;;;;;;;3.50;100.00;100355.59;5004944;28;20046;-85
2023/01/22 04:01:52;;;;;;;10.75;6.32;;;;;;;3.73;100.00;100345.91;5005128;28;20607;-85
2023/01/22 04:04:22;;;;;;;13.88;7.05;;;;;;;3.84;100.00;100353.75;5004236;28;20057;-84
2023/01/22 04:06:52;;;;;;;13.85;6.53;;;;;;;3.61;100.00;100363.44;5004003;28;20042;-85
2023/01/22 04:09:17;;;;;;;11.63;6.72;;;;;;;3.49;100.00;100361.78;5005924;28;20116;-87
2023/01/22 04:11:47;;;;;;;11.52;6.22;;;;;;;3.35;100.00;100359.41;5003821;28;20408;-86
2023/01/22 04:14:14;;;;;;;11.32;7.18;;;;;;;3.51;100.00;100367.72;5003083;28;20484;-86
2023/01/22 04:16:45;;;;;;;11.07;5.30;;;;;;;3.26;100.00;100362.75;5002347;28;20037;-86
2023/01/22 04:19:29;;;;;;;13.85;6.75;;;;;;;2.97;100.00;100374.66;5001569;28;20050;-86
2023/01/22 04:22:17;;;;;;;10.70;5.97;;;;;;;2.88;100.00;100384.03;4999942;28;20042;-86
2023/01/22 04:24:44;;;;;;;13.95;6.35;;;;;;;2.92;100.00;100374.16;5000632;28;20363;-86
2023/01/22 04:27:16;;;;;;;12.05;6.43;;;;;;;2.90;100.00;100368.22;5001685;28;20073;-84
2023/01/22 04:29:44;;;;;;;11.50;5.90;;;;;;;3.06;100.00;100381.78;5005932;28;20061;-85
2023/01/22 04:32:13;;;;;;;10.10;5.88;;;;;;;3.05;100.00;100380.13;4987855;28;20034;-86
2023/01/22 04:35:05;;;;;;;10.68;6.25;;;;;;;2.91;100.00;100382.97;5004070;28;20455;-86
2023/01/22 04:37:35;;;;;;;10.35;5.75;;;;;;;2.70;100.00;100384.59;5003054;28;20037;-86
2023/01/22 04:40:02;;;;;;;10.55;6.07;;;;;;;2.55;100.00;100387.41;5001024;28;20050;-87
2023/01/22 04:42:31;;;;;;;8.93;5.45;;;;;;;2.57;100.00;100388.13;5018718;28;20042;-86
2023/01/22 04:45:01;;;;;;;12.35;6.15;;;;;;;2.59;100.00;100388.84;5002680;28;20060;-86
2023/01/22 04:47:28;;;;;;;12.18;5.93;;;;;;;2.64;100.00;100379.81;4986570;28;20034;-85
2023/01/22 04:49:54;;;;;;;10.70;5.85;;;;;;;2.59;100.00;100388.84;4983724;28;20053;-86
2023/01/22 04:52:20;;;;;;;17.63;6.38;;;;;;;2.58;100.00;100395.03;5002213;28;20038;-84
2023/01/22 04:54:50;;;;;;;18.98;6.38;;;;;;;2.46;100.00;100398.53;5001590;28;20032;-85
2023/01/22 04:57:17;;;;;;;22.23;6.65;;;;;;;2.39;100.00;100399.09;5002511;28;20038;-85
2023/01/22 04:59:48;;;;;;;14.85;6.65;;;;;;;2.40;100.00;100388.53;5001078;28;20042;-85
2023/01/22 05:02:14;;;;;;;;;;;;;;;2.45;100.00;100391.63;4985073;28;20052;-84
2023/01/22 05:04:41;;;;;;;14.45;6.63;;;;;;;2.47;100.00;100395.00;5000587;28;19917;-87
2023/01/22 05:07:06;;;;;;;11.93;6.82;;;;;;;2.49;100.00;100393.09;5002344;28;20034;-85
2023/01/22 05:09:33;;;;;;;13.50;6.32;;;;;;;2.56;100.00;100394.31;5000885;28;20034;-86
2023/01/22 05:11:59;;;;;;;10.70;6.45;;;;;;;2.66;100.00;100388.38;5000297;28;20034;-84
2023/01/22 05:14:29;;;;;;;11.73;5.93;;;;;;;2.77;100.00;100401.50;4999370;28;20044;-86
2023/01/22 05:16:56;;;;;;;9.48;6.10;;;;;;;2.86;100.00;100400.78;5001460;28;20034;-88
2023/01/22 05:19:22;;;;;;;10.65;6.35;;;;;;;3.06;100.00;100405.34;5003501;28;20041;-83
2023/01/22 05:21:50;;;;;;;10.75;6.40;;;;;;;2.93;100.00;100400.22;4986237;28;20050;-84
2023/01/22 05:24:18;;;;;;;11.32;6.07;;;;;;;2.95;100.00;100395.69;5002012;28;20027;-83
2023/01/22 05:26:44;;;;;;;11.50;6.18;;;;;;;2.87;100.00;100419.00;5002370;28;20145;-83
2023/01/22 05:29:32;;;;;;;11.40;6.03;;;;;;;2.87;100.00;100424.25;5003292;28;20029;-84
2023/01/22 05:32:15;;;;;;;12.85;5.78;;;;;;;2.94;100.00;100430.69;5002756;28;20050;-84
2023/01/22 05:34:46;;;;;;;9.40;6.07;;;;;;;2.90;100.00;100423.19;5000051;28;20038;-86
2023/01/22 05:37:12;;;;;;;9.15;5.78;;;;;;;2.92;100.00;100432.56;5000346;28;20034;-88
2023/01/22 05:39:41;;;;;;;10.65;5.75;;;;;;;2.99;100.00;100422.47;5000579;28;20042;-85
2023/01/22 05:42:14;;;;;;;11.23;5.90;;;;;;;2.97;100.00;100413.91;4999119;28;20041;-85
2023/01/22 05:44:41;;;;;;;9.10;5.93;;;;;;;2.94;100.00;100419.38;5003154;28;20407;-85
2023/01/22 05:47:07;;;;;;;11.75;6.25;;;;;;;2.93;100.00;100429.00;5013736;28;20030;-85
2023/01/22 05:50:03;;;;;;;9.98;6.03;;;;;;;3.03;100.00;100423.91;5006867;28;20030;-85
2023/01/22 05:52:28;;;;;;;12.38;6.35;;;;;;;3.03;100.00;100418.69;5015703;28;20026;-86
2023/01/22 05:54:57;;;;;;;11.25;6.50;;;;;;;3.05;100.00;100427.22;5016608;28;20074;-84
2023/01/22 05:57:23;;;;;;;11.38;6.10;;;;;;;3.15;100.00;100430.00;4998118;28;20064;-85
2023/01/22 05:59:48;;;;;;;10.18;5.97;;;;;;;3.15;100.00;100433.44;5011694;28;20069;-84
2023/01/22 06:02:14;;;;;;;10.52;5.80;;;;;;;3.19;100.00;100432.25;5025849;28;20049;-83
2023/01/22 06:04:45;;;;;;;12.23;5.53;;;;;;;3.30;100.00;100439.31;5006676;28;20557;-86
2023/01/22 06:07:21;;;;;;;9.25;5.47;;;;;;;3.26;100.00;100441.31;5004050;28;20035;-87
2023/01/22 06:09:47;;;;;;;10.85;5.47;;;;;;;3.34;100.00;100446.81;4987363;28;20054;-88
2023/01/22 06:12:14;;;;;;;8.88;5.00;;;;;;;3.33;100.00;100446.91;5004094;28;20044;-85
2023/01/22 06:14:41;;;;;;;9.80;4.55;;;;;;;3.28;100.00;100442.03;5003120;28;20050;-86
2023/01/22 06:17:06;;;;;;;9.35;5.35;;;;;;;3.28;100.00;100444.66;5004327;28;20045;-87
2023/01/22 06:19:38;;;;;;;9.80;5.32;;;;;;;3.39;100.00;100451.69;4987817;28;20395;-84
2023/01/22 06:22:04;;;;;;;7.47;4.97;;;;;;;3.31;100.00;100444.44;5005979;28;20116;-87
2023/01/22 06:24:37;;;;;;;7.28;5.18;;;;;;;3.33;100.00;100450.38;5069150;23;20097;-85
2023/01/22 06:27:06;;;;;;;8.07;5.40;;;;;;;3.40;100.00;100458.59;4972535;28;20041;-85
2023/01/22 06:29:38;;;;;;;8.18;5.30;;;;;;;3.38;100.00;100466.56;5002056;28;20043;-85
2023/01/22 06:32:04;;;;;;;9.10;5.45;;;;;;;3.31;100.00;100462.78;5006227;28;20107;-86
2023/01/22 06:34:30;;;;;;;8.20;4.97;;;;;;;3.32;100.00;100472.28;5008059;28;20036;-86
2023/01/22 06:36:58;;;;;;;9.50;5.75;;;;;;;3.31;100.00;100481.09;5004423;28;20121;-83
2023/01/22 06:39:28;;;;;;;10.70;5.93;;;;;;;3.40;100.00;100492.66;5005878;28;20041;-84
2023/01/22 06:42:02;;;;;;;9.55;5.68;;;;;;;3.33;100.00;100501.94;5006800;28;20492;-84
2023/01/22 06:44:33;;;;;;;10.75;4.20;;;;;;;3.30;100.00;100510.84;5004415;28;20384;-82
2023/01/22 06:47:00;;;;;;;8.40;5.55;;;;;;;3.34;100.00;100509.69;5006023;28;20049;-83
2023/01/22 06:49:29;;;;;;;9.90;5.90;;;;;;;3.31;100.00;100520.38;5008185;28;20033;-84
2023/01/22 06:51:57;;;;;;;8.63;5.50;;;;;;;3.45;100.00;100517.53;5008170;28;20034;-85
2023/01/22 06:54:26;;;;;;;9.60;5.63;;;;;;;3.54;100.00;100518.63;5009012;28;20046;-83
2023/01/22 06:56:52;;;;;;;10.02;5.65;;;;;;;3.59;100.00;100521.72;5027815;28;20050;-83
2023/01/22 06:59:20;;;;;;;13.05;6.30;;;;;;;3.51;100.00;100527.53;5029365;28;20120;-81
2023/01/22 07:01:46;;;;;;;10.75;5.22;;;;;;;3.66;100.00;100543.91;5013584;28;20038;-82
2023/01/22 07:04:12;;;;;;;9.45;5.28;;;;;;;3.50;100.00;100539.00;5010188;28;20046;-83
2023/01/22 07:06:42;;;;;;;7.85;5.22;;;;;;;3.57;100.00;100545.44;5025148;28;20049;-83
2023/01/22 07:09:12;;;;;;;9.27;5.00;;;;;;;3.59;100.00;100548.78;5023453;28;20045;-86
2023/01/22 07:11:39;;;;;;;7.57;4.43;;;;;;;3.60;100.00;100550.44;5008870;28;20091;-85
2023/01/22 07:14:06;;;;;;;7.82;4.72;;;;;;;3.61;100.00;100562.56;4992198;28;20034;-84
2023/01/22 07:16:37;;;;;;;6.55;4.55;;;;;;;3.65;100.00;100558.78;5005784;28;20045;-90
2023/01/22 07:19:09;;;;;;;14.18;5.07;;;;;;;3.59;100.00;100564.50;5009444;28;20049;-82
2023/01/22 07:21:46;;;;;;;8.70;4.97;;;;;;;3.64;100.00;100580.72;5008867;28;20038;-88
2023/01/22 07:24:12;;;;;;;7.30;4.88;;;;;;;3.43;100.00;100584.09;5009114;28;20037;-89
2023/01/22 07:26:38;;;;;;;12.40;4.90;;;;;;;3.45;100.00;100587.44;5009134;28;20407;-84
2023/01/22 07:29:07;;;;;;;7.53;4.72;;;;;;;3.39;100.00;100590.50;5007616;28;20039;-88
2023/01/22 07:31:33;;;;;;;7.50;5.07;;;;;;;3.24;100.00;100592.50;5009999;28;20044;-89
2023/01/22 07:34:02;;;;;;;15.23;4.95;;;;;;;3.29;100.00;100598.22;5010919;28;20058;-90
2023/01/22 07:36:28;;;;;;;6.95;4.85;;;;;;;3.22;100.00;100607.47;5023548;28;20038;-84
2023/01/22 07:39:02;;;;;;;9.45;4.15;;;;;;;3.19;100.00;100605.09;5025055;28;20049;-87
2023/01/22 07:41:32;;;;;;;7.30;4.80;;;;;;;3.19;100.00;100607.72;5003660;28;20045;-85
2023/01/22 07:43:59;;;;;;;7.05;4.40;;;;;;;3.22;100.00;100598.78;5121285;23;20053;-87
2023/01/22 07:46:32;;;;;;;9.50;4.70;;;;;;;3.40;100.00;100610.53;4490900;23;15911139;-87
2023/01/22 07:48:58;;;;;;;6.38;3.88;;;;;;;3.36;100.00;100609.91;4985804;28;20039;-88
2023/01/22 07:51:46;;;;;;;7.55;4.80;;;;;;;3.43;100.00;100621.63;5040119;23;20156;-86
2023/01/22 07:54:15;;;;;;;9.52;4.40;;;;;;;3.35;100.00;100613.47;4991632;28;20056;-87
2023/01/22 07:56:41;;;;;;;9.88;4.95;;;;;;;3.41;100.00;100599.13;5025245;28;20113;-81
2023/01/22 07:59:09;;;;;;;7.65;4.85;;;;;;;3.34;100.00;100596.13;5011219;28;20054;-83
2023/01/22 08:01:35;;;;;;;8.57;5.25;;;;;;;3.26;100.00;100597.63;5010660;28;20042;-82
2023/01/22 08:04:01;;;;;;;9.55;5.28;;;;;;;3.30;100.00;100599.91;5025276;28;20035;-82
2023/01/22 08:06:26;;;;;;;9.52;4.65;;;;;;;3.26;100.00;100603.69;5012258;28;20077;-80
2023/01/22 08:08:52;;;;;;;7.28;5.05;;;;;;;3.27;100.00;100597.53;5011820;28;20107;-82
2023/01/22 08:11:18;;;;;;;7.18;5.03;;;;;;;3.34;100.00;100608.38;5015109;28;20030;-84
2023/01/22 08:13:44;;;;;;;7.95;5.07;;;;;;;3.44;100.00;100607.59;5010889;28;20081;-84
2023/01/22 08:16:09;;;;;;;7.32;5.03;;;;;;;3.57;100.00;100604.88;5007388;28;20057;-80
2023/01/22 08:18:35;;;;;;;9.77;4.78;;;;;;;3.58;100.00;100614.38;5008084;28;20041;-79
2023/01/22 08:21:01;;;;;;;11.00;5.47;;;;;;;3.59;100.00;100616.06;5010964;28;20042;-84
2023/01/22 08:23:27;;;;;;;8.85;5.63;;;;;;;3.56;100.00;100617.13;5014263;28;20038;-82
2023/01/22 08:25:52;;;;;;;10.02;5.15;;;;;;;3.66;100.00;100617.28;5012903;28;20086;-82
2023/01/22 08:28:18;;;;;;;11.02;5.47;;;;;;;3.74;100.00;100619.31;5028775;28;20057;-82
2023/01/22 08:30:43;;;;;;;9.45;5.68;;;;;;;3.71;100.00;100624.81;5012526;28;20387;-83
2023/01/22 08:33:09;;;;;;;9.45;5.30;;;;;;;3.84;100.00;100623.75;5012199;28;20038;-81
2023/01/22 08:35:37;;;;;;;9.98;6.15;;;;;;;4.06;100.00;100636.03;5009859;28;20090;-83
2023/01/22 08:38:03;;;;;;;9.52;5.13;;;;;;;4.23;100.00;100629.50;5006013;28;20026;-84
2023/01/22 08:40:29;;;;;;;10.93;5.90;;;;;;;4.40;100.00;100635.13;5010871;28;20462;-86
2023/01/22 08:42:54;;;;;;;11.45;6.20;;;;;;;4.34;100.00;100640.81;5003216;28;20086;-88
2023/01/22 08:45:20;;;;;;;8.85;5.50;;;;;;;4.25;100.00;100649.41;4994385;28;20045;-87
2023/01/22 08:47:46;;;;;;;11.95;5.95;;;;;;;4.36;100.00;100653.81;4998612;28;20050;-86
2023/01/22 08:50:13;;;;;;;9.90;6.15;;;;;;;4.50;100.00;100646.56;5007169;28;20054;-87
2023/01/22 08:52:40;;;;;;;8.60;5.10;;;;;;;4.55;100.00;100662.78;5018385;28;20050;-87
2023/01/22 08:55:08;;;;;;;8.93;4.63;;;;;;;4.46;100.00;100670.53;5002992;28;20079;-85
2023/01/22 08:57:35;;;;;;;7.07;4.53;;;;;;;4.34;100.00;100672.31;5001366;28;20045;-84
2023/01/22 09:00:00;;;;;;;11.27;5.55;;;;;;;4.58;100.00;100680.91;5000186;28;20046;-86
2023/01/22 09:02:26;;;;;;;8.27;5.00;;;;;;;4.54;100.00;100673.41;4999739;28;20089;-87
2023/01/22 09:04:52;;;;;;;9.98;5.88;;;;;;;4.75;100.00;100670.84;5019140;28;20094;-83
2023/01/22 09:07:18;;;;;;;11.25;5.40;;;;;;;4.94;100.00;100676.34;5006269;28;20029;-89
2023/01/22 09:09:43;;;;;;;10.32;5.63;;;;;;;4.93;100.00;100693.03;5021819;28;20027;-86
2023/01/22 09:14:50;;;;;;;8.25;5.18;;;;;;;4.55;100.00;100698.66;5207888;23;20065;-90
2023/01/22 09:17:17;;;;;;;9.70;5.72;;;;;;;4.37;100.00;100690.47;4992991;28;20010;-89
2023/01/22 09:19:43;;;;;;;9.65;5.60;;;;;;;4.42;100.00;100690.09;5006621;28;20094;-89
2023/01/22 09:22:08;;;;;;;9.02;5.50;;;;;;;4.47;100.00;100694.03;5006636;28;20054;-89
2023/01/22 09:24:33;;;;;;;9.93;5.75;;;;;;;4.45;100.00;100690.69;4991660;28;20034;-89
2023/01/22 09:26:59;;;;;;;10.38;5.28;;;;;;;4.38;100.00;100699.13;4992310;28;20038;-88
2023/01/22 09:29:34;;;;;;;7.95;5.05;;;;;;;4.32;100.00;100687.34;4996976;28;20046;-92
2023/01/22 09:32:00;;;;;;;8.52;5.30;;;;;;;4.49;100.00;100697.38;4981211;28;20103;-88
2023/01/22 09:34:26;;;;;;;8.35;4.82;;;;;;;4.69;100.00;100694.03;5000681;28;20054;-88
2023/01/22 09:36:51;;;;;;;10.02;5.60;;;;;;;4.81;100.00;100689.59;4983783;28;20035;-88
2023/01/22 09:39:53;;;;;;;14.30;5.35;;;;;;;4.82;100.00;100691.25;4994119;28;20062;-88
2023/01/22 09:42:42;;;;;;;10.85;4.88;;;;;;;4.69;100.00;100693.19;4991928;28;20117;-85
2023/01/22 09:45:13;;;;;;;16.00;5.28;;;;;;;4.42;100.00;100692.69;4990502;28;20048;-89
2023/01/22 09:47:48;;;;;;;6.63;4.60;;;;;;;4.44;100.00;100689.00;4990683;28;20030;-87
2023/01/22 09:50:24;;;;;;;9.60;5.05;;;;;;;4.42;100.00;100695.31;5003520;28;20106;-87
2023/01/22 09:52:52;;;;;;;9.35;5.75;;;;;;;4.41;100.00;100694.50;5011345;28;20046;-86
2023/01/22 09:55:22;;;;;;;11.52;6.10;;;;;;;4.41;100.00;100704.19;4982857;28;20030;-88
2023/01/22 09:57:56;;;;;;;8.85;5.20;;;;;;;4.45;100.00;100706.44;5000078;28;20030;-88
2023/01/22 10:00:43;;;;;;;8.30;4.43;;;;;;;4.58;100.00;100696.66;5003918;28;20034;-88
2023/01/22 10:03:21;;;;;;;10.75;6.20;;;;;;;4.83;100.00;100702.59;4994147;28;20298;-88
2023/01/22 10:06:10;;;;;;;14.45;6.22;;;;;;;4.99;100.00;100706.53;4989739;28;20181;-87
2023/01/22 10:09:07;;;;;;;7.68;5.25;;;;;;;5.01;100.00;100709.00;4988934;28;20081;-89
2023/01/22 10:11:33;;;;;;;12.23;5.43;;;;;;;4.97;100.00;100708.41;4997803;28;20073;-85
2023/01/22 10:14:01;;;;;;;7.65;4.57;;;;;;;5.06;100.00;100706.88;5000446;28;20038;-87
2023/01/22 10:16:27;;;;;;;8.57;4.97;;;;;;;4.92;100.00;100700.09;5014197;28;20045;-86
2023/01/22 10:19:02;;;;;;;8.95;4.97;;;;;;;5.12;100.00;100696.72;5018199;28;20038;-90
2023/01/22 10:21:46;;;;;;;8.10;5.35;;;;;;;5.04;100.00;100706.13;5035018;28;20043;-89
2023/01/22 10:24:12;;;;;;;9.82;5.95;;;;;;;5.02;100.00;100702.81;5018827;28;20065;-87
2023/01/22 10:26:41;;;;;;;12.40;5.28;;;;;;;5.04;100.00;100693.00;5033645;28;20030;-87
2023/01/22 10:29:12;;;;;;;12.63;4.85;;;;;;;5.11;100.00;100704.69;5018953;28;20038;-88
2023/01/22 10:31:44;;;;;;;9.48;5.00;;;;;;;5.10;100.00;100710.94;5016594;28;20038;-86
2023/01/22 10:34:15;;;;;;;13.00;4.90;;;;;;;5.12;100.00;100706.38;4998697;28;20034;-89
2023/01/22 10:36:49;;;;;;;21.95;4.93;;;;;;;5.07;100.00;100708.56;4998190;28;20042;-87
2023/01/22 10:39:16;;;;;;;13.07;4.38;;;;;;;5.08;100.00;100700.53;5013279;28;20125;-88
2023/01/22 10:41:43;;;;;;;8.45;4.95;;;;;;;5.14;100.00;100709.69;4997978;28;20033;-89
2023/01/22 10:44:15;;;;;;;9.55;4.70;;;;;;;5.28;100.00;100700.72;4996514;28;20117;-88
2023/01/22 10:46:41;;;;;;;8.48;5.07;;;;;;;5.28;100.00;100698.09;4997660;28;20041;-86
2023/01/22 10:49:22;;;;;;;9.07;4.90;;;;;;;5.10;100.00;100714.38;4980864;28;20034;-89
2023/01/22 10:52:01;;;;;;;12.57;5.18;;;;;;;5.01;100.00;100719.50;5013534;28;20475;-87
2023/01/22 10:54:42;;;;;;;11.82;5.25;;;;;;;5.11;100.00;100723.09;4998633;28;20217;-89
2023/01/22 10:57:36;;;;;;;12.57;4.63;;;;;;;5.06;100.00;100730.50;5001582;28;20038;-88
2023/01/22 11:00:21;;;;;;;15.93;4.35;;;;;;;5.08;100.00;100728.59;4998526;28;20034;-86
2023/01/22 11:02:48;;;;;;;6.88;4.30;;;;;;;5.14;100.00;100735.97;4999216;28;20517;-88
2023/01/22 11:05:22;;;;;;;6.55;4.38;;;;;;;5.46;100.00;100726.38;5000250;28;20026;-87
2023/01/22 11:07:59;;;;;;;7.53;4.38;;;;;;;5.34;100.00;100731.75;5001638;28;20034;-87
2023/01/22 11:11:01;;;;;;;9.30;4.63;;;;;;;5.48;100.00;100728.84;5008253;28;20057;-83
2023/01/22 11:13:42;;;;;;;11.13;4.80;;;;;;;5.47;100.00;100741.16;5006970;28;20054;-87
2023/01/22 11:16:19;;;;;;;7.50;4.70;;;;;;;5.20;100.00;100746.03;5000773;28;20058;-91
2023/01/22 11:18:51;;;;;;;13.75;5.78;;;;;;;5.36;100.00;100735.94;5001630;28;20061;-85
2023/01/22 11:21:25;;;;;;;13.05;4.65;;;;;;;5.19;100.00;100733.81;5001274;28;20483;-85
2023/01/22 11:24:07;;;;;;;7.43;4.45;;;;;;;5.34;100.00;100729.13;5017160;28;20037;-88
2023/01/22 11:26:42;;;;;;;;;;;;;;;5.15;100.00;100724.50;5000440;28;20430;-88
2023/01/22 11:29:29;;;;;;;6.13;4.05;;;;;;;5.38;100.00;100731.38;5000561;28;19925;-88
2023/01/22 11:32:01;;;;;;;17.50;8.90;;;;;;;5.15;100.00;100735.88;5007232;28;20054;-90
2023/01/22 11:34:50;;;;;;;12.77;7.20;;;;;;;5.09;100.00;100733.72;5002234;28;20038;-87
2023/01/22 11:37:19;;;;;;;14.45;7.10;;;;;;;5.12;100.00;100732.66;5001777;28;20077;-89
2023/01/22 11:39:52;;;;;;;7.32;4.57;;;;;;;4.99;100.00;100724.06;5003504;28;20034;-88
2023/01/22 11:42:29;;;;;;;7.75;4.72;;;;;;;5.07;100.00;100729.56;5006504;28;20475;-89
2023/01/22 11:45:25;;;;;;;7.07;4.55;;;;;;;5.05;100.00;100720.94;4998134;28;20052;-88
2023/01/22 11:47:53;;;;;;;9.40;5.10;;;;;;;4.84;100.00;100712.97;5000046;28;20037;-89
2023/01/22 11:50:46;;;;;;;21.15;5.10;;;;;;;4.91;100.00;100713.31;5000670;28;20133;-86
2023/01/22 11:53:31;;;;;;;8.07;4.43;;;;;;;5.14;100.00;100705.28;4997308;28;20420;-90
2023/01/22 11:56:13;;;;;;;12.68;5.20;;;;;;;5.01;100.00;100709.00;4996686;28;20124;-91
2023/01/22 11:58:48;;;;;;;10.50;5.15;;;;;;;5.00;100.00;100712.63;4996784;28;20041;-90
2023/01/22 12:01:29;;;;;;;8.70;4.75;;;;;;;5.12;100.00;100704.59;5013731;28;20034;-87
2023/01/22 12:04:22;;;;;;;18.67;7.80;;;;;;;5.37;100.00;100706.06;5441946;23;20046;-88
2023/01/22 12:06:55;;;;;;;;;;;;;;;5.25;100.00;100708.84;5422933;22;20073;-87
2023/01/22 12:12:14;;;;;;;7.80;4.30;;;;;;;4.91;100.00;100706.28;4998068;28;20818;-86
2023/01/22 12:15:01;;;;;;;5.60;3.53;;;;;;;4.82;100.00;100706.19;4970722;28;20062;-88
2023/01/22 12:18:03;;;;;;;5.88;3.63;;;;;;;4.88;100.00;100711.78;4993527;28;20043;-88
2023/01/22 12:20:50;;;;;;;4.63;3.47;;;;;;;4.85;100.00;100717.28;5001514;28;20106;-89
2023/01/22 12:23:49;;;;;;;6.25;3.92;;;;;;;4.88;100.00;100721.44;4992201;28;20035;-87
2023/01/22 12:26:41;;;;;;;8.55;3.80;;;;;;;4.86;100.00;100731.25;4964051;28;20074;-89
2023/01/22 12:29:18;;;;;;;6.50;3.90;;;;;;;4.81;100.00;100730.75;4967245;28;20047;-89
2023/01/22 12:32:17;;;;;;;24.45;8.05;;;;;;;4.81;100.00;100712.38;4943439;28;20043;-90
2023/01/22 12:35:07;;;;;;;21.30;6.93;;;;;;;5.03;100.00;100712.38;4973889;28;20130;-90
2023/01/22 12:37:56;;;;;;;78.18;19.83;;;;;;;5.28;100.00;100716.47;4959989;28;20039;-88
2023/01/22 12:40:47;;;;;;;17.38;6.32;;;;;;;5.19;100.00;100713.66;4970770;28;20175;-89
2023/01/22 12:43:19;;;;;;;13.15;5.32;;;;;;;5.11;100.00;100702.91;4967725;28;20477;-88
2023/01/22 12:45:50;;;;;;;24.05;6.68;;;;;;;4.93;100.00;100711.44;4974811;28;20045;-89
2023/01/22 12:48:38;;;;;;;23.65;7.80;;;;;;;5.13;100.00;100703.63;4982692;28;20098;-89
2023/01/22 12:51:04;;;;;;;16.35;6.15;;;;;;;5.14;100.00;100699.19;4955516;28;20066;-90
2023/01/22 12:53:38;;;;;;;10.55;5.25;;;;;;;5.04;100.00;100687.75;4956181;28;20039;-90
2023/01/22 12:56:09;;;;;;;11.85;5.68;;;;;;;5.23;100.00;100690.59;4962653;28;20522;-89
2023/01/22 12:58:38;;;;;;;9.23;4.45;;;;;;;5.47;100.00;100693.03;4961089;28;20031;-90
2023/01/22 13:01:12;;;;;;;10.80;4.90;;;;;;;5.71;100.00;100691.84;4958254;28;20058;-89